Time;durP1;ratioP1;P1;durP2;ratioP2;P2;SDS_P1;SDS_P2;PMS_P1;PMS_P2;Temp;Humidity;BMP_temperature;BMP_pressure;BME280_temperature;BME280_humidity;BME280_pressure;Samples;Min_cycle;Max_cycle;Signal;HPM_P1;HPM_P2
2021/04/14 00:00:33;;;;;;;2.50;1.23;;;;;;;5.89;52.89;101290.91;5073038;28;20052;-84
2021/04/14 00:03:01;;;;;;;3.28;1.42;;;;;;;5.87;53.40;101288.34;5073060;28;20460;-84
2021/04/14 00:05:33;;;;;;;4.10;1.48;;;;;;;5.83;53.20;101290.13;5054948;28;20055;-84
2021/04/14 00:07:59;;;;;;;5.05;1.45;;;;;;;5.81;53.34;101280.56;5073596;28;20118;-84
2021/04/14 00:10:29;;;;;;;5.38;1.30;;;;;;;5.76;53.16;101283.25;5076845;28;20048;-84
2021/04/14 00:12:55;;;;;;;2.83;1.50;;;;;;;5.73;53.31;101284.13;5059310;28;20542;-84
2021/04/14 00:15:35;;;;;;;2.50;1.45;;;;;;;5.65;53.26;101290.34;5059025;28;20052;-84
2021/04/14 00:18:01;;;;;;;5.15;1.95;;;;;;;5.64;53.32;101284.25;5076904;28;20489;-84
2021/04/14 00:20:27;;;;;;;3.50;1.50;;;;;;;5.60;53.68;101282.56;5058876;28;20139;-84
2021/04/14 00:22:54;;;;;;;3.50;1.73;;;;;;;5.56;53.50;101286.97;5076679;28;20062;-84
2021/04/14 00:25:24;;;;;;;6.20;1.52;;;;;;;5.54;53.69;101283.50;5076527;28;20051;-84
2021/04/14 00:27:50;;;;;;;2.33;1.52;;;;;;;5.53;53.74;101286.97;5058909;28;20091;-84
2021/04/14 00:30:17;;;;;;;3.97;1.88;;;;;;;5.51;53.95;101288.75;5076663;28;20052;-84
2021/04/14 00:32:43;;;;;;;2.85;1.70;;;;;;;5.50;53.93;101278.31;5076464;28;20098;-84
2021/04/14 00:35:11;;;;;;;4.40;2.00;;;;;;;5.48;53.97;101288.78;5058787;28;20197;-84
2021/04/14 00:37:37;;;;;;;2.60;1.55;;;;;;;5.48;53.96;101278.34;5076422;28;20546;-84
2021/04/14 00:40:13;;;;;;;6.60;2.03;;;;;;;5.45;54.04;101278.38;5076278;28;20055;-84
2021/04/14 00:42:39;;;;;;;4.72;1.50;;;;;;;5.48;53.97;101278.34;5076333;28;20098;-84
2021/04/14 00:45:07;;;;;;;3.33;1.75;;;;;;;5.45;54.08;101278.38;5076059;28;20634;-85
2021/04/14 00:47:33;;;;;;;4.38;1.73;;;;;;;5.46;54.05;101272.28;5076403;28;20053;-85
2021/04/14 00:49:59;;;;;;;2.90;1.45;;;;;;;5.44;54.55;101272.28;5058540;28;20057;-84
2021/04/14 00:52:25;;;;;;;5.85;1.70;;;;;;;5.45;54.37;101273.13;5058422;28;20056;-85
2021/04/14 00:54:51;;;;;;;4.00;1.92;;;;;;;5.43;54.45;101269.69;5075896;28;20444;-85
2021/04/14 00:57:17;;;;;;;3.60;1.70;;;;;;;5.41;54.29;101276.66;5058520;28;20390;-85
2021/04/14 00:59:43;;;;;;;5.30;1.63;;;;;;;5.39;54.53;101268.88;5058426;28;20048;-85
2021/04/14 01:02:09;;;;;;;4.10;1.80;;;;;;;5.37;54.51;101265.41;5058022;28;20044;-85
2021/04/14 01:04:36;;;;;;;4.53;1.98;;;;;;;5.35;54.59;101273.25;5075711;28;20127;-84
2021/04/14 01:07:02;;;;;;;4.95;1.48;;;;;;;5.34;54.79;101266.31;5058375;28;20052;-84
2021/04/14 01:09:29;;;;;;;9.57;2.10;;;;;;;5.32;54.80;101268.06;5058545;28;20052;-84
2021/04/14 01:11:57;;;;;;;6.43;1.65;;;;;;;5.31;54.86;101266.31;5058288;28;20048;-84
2021/04/14 01:14:23;;;;;;;3.92;1.33;;;;;;;5.32;55.06;101265.47;5057851;28;20049;-85
2021/04/14 01:16:49;;;;;;;4.28;1.42;;;;;;;5.32;54.83;101260.25;5075948;28;20060;-84
2021/04/14 01:19:15;;;;;;;6.28;2.00;;;;;;;5.32;55.09;101255.03;5075686;28;20098;-84
2021/04/14 01:21:43;;;;;;;4.80;1.65;;;;;;;5.32;54.90;101256.75;5057173;28;20095;-84
2021/04/14 01:24:11;;;;;;;2.53;1.27;;;;;;;5.29;54.92;101257.66;5075441;28;20052;-84
2021/04/14 01:26:37;;;;;;;3.33;1.40;;;;;;;5.29;54.94;101257.66;5075697;28;20101;-84
2021/04/14 01:29:06;;;;;;;5.18;1.40;;;;;;;5.27;54.73;101254.19;5075634;28;20094;-84
2021/04/14 01:31:32;;;;;;;4.65;1.83;;;;;;;5.26;55.05;101255.06;5057783;28;20078;-84
2021/04/14 01:34:08;;;;;;;3.47;1.42;;;;;;;5.23;54.98;101268.16;5075160;28;20049;-84
2021/04/14 01:36:34;;;;;;;2.53;1.40;;;;;;;5.25;54.93;101255.09;5057662;28;20060;-84
2021/04/14 01:39:06;;;;;;;7.82;1.48;;;;;;;5.23;55.02;101260.31;5075515;28;20455;-84
2021/04/14 01:41:32;;;;;;;2.97;1.48;;;;;;;5.20;54.79;101269.03;5075317;28;20045;-84
2021/04/14 01:43:59;;;;;;;4.82;1.67;;;;;;;5.19;54.97;101259.50;5075081;28;20041;-84
2021/04/14 01:46:26;;;;;;;6.30;1.88;;;;;;;5.18;55.23;101267.34;5075167;28;20481;-85
2021/04/14 01:48:52;;;;;;;2.85;1.38;;;;;;;5.17;55.17;101265.59;5075089;28;20048;-84
2021/04/14 01:53:49;;;;;;;3.13;1.33;;;;;;;5.16;55.47;101258.66;5033759;28;20501;-84
2021/04/14 01:56:15;;;;;;;8.48;2.03;;;;;;;5.15;55.22;101259.53;5034950;28;20394;-84
2021/04/14 01:58:43;;;;;;;6.72;2.00;;;;;;;5.14;55.11;101260.41;5034942;28;20485;-84
2021/04/14 02:01:10;;;;;;;3.08;1.60;;;;;;;5.12;55.33;101260.41;5035094;28;20053;-84
2021/04/14 02:03:38;;;;;;;5.65;1.92;;;;;;;5.09;55.17;101256.09;5032949;28;20092;-84
2021/04/14 02:06:07;;;;;;;7.20;2.00;;;;;;;5.09;55.22;101257.88;5034872;28;20555;-84
2021/04/14 02:08:34;;;;;;;5.82;2.03;;;;;;;5.06;55.26;101252.66;5034979;28;20053;-84
2021/04/14 02:11:00;;;;;;;6.43;1.75;;;;;;;5.04;55.46;101254.41;5034958;28;20050;-84
2021/04/14 02:13:32;;;;;;;9.05;2.10;;;;;;;5.00;55.31;101255.31;5034530;28;20425;-84
2021/04/14 02:15:59;;;;;;;4.47;1.67;;;;;;;5.01;55.60;101254.47;5033612;28;20057;-84
2021/04/14 02:18:26;;;;;;;9.05;1.88;;;;;;;4.99;55.45;101248.38;5034647;28;20123;-84
2021/04/14 02:20:52;;;;;;;12.07;2.10;;;;;;;4.97;55.44;101252.75;5034730;28;20049;-84
2021/04/14 02:23:19;;;;;;;4.63;1.88;;;;;;;4.95;55.83;101256.25;5034681;28;20116;-83
2021/04/14 02:25:46;;;;;;;3.22;1.67;;;;;;;4.95;55.83;101252.78;5034480;28;20127;-84
2021/04/14 02:28:13;;;;;;;4.43;1.65;;;;;;;4.93;55.95;101244.94;5034884;28;20076;-83
2021/04/14 02:30:39;;;;;;;5.40;2.10;;;;;;;4.93;56.01;101247.56;5034549;28;20049;-83
2021/04/14 02:33:07;;;;;;;6.38;1.80;;;;;;;4.93;55.83;101249.28;5033576;28;20045;-84
2021/04/14 02:35:34;;;;;;;6.40;1.60;;;;;;;4.92;56.05;101244.97;5033983;28;20049;-84
2021/04/14 02:38:00;;;;;;;8.90;2.47;;;;;;;4.93;55.95;101251.91;5034412;28;20123;-83
2021/04/14 02:40:27;;;;;;;6.40;1.83;;;;;;;4.91;56.00;101243.25;5034322;28;20061;-84
2021/04/14 02:42:53;;;;;;;8.20;1.88;;;;;;;4.92;56.03;101251.06;5034187;28;20057;-84
2021/04/14 02:45:23;;;;;;;6.35;1.60;;;;;;;4.90;55.74;101244.13;5034117;28;20049;-84
2021/04/14 02:47:49;;;;;;;8.68;2.58;;;;;;;4.91;56.09;101243.25;5034104;28;20113;-84
2021/04/14 02:50:16;;;;;;;7.85;2.03;;;;;;;4.90;55.95;101233.69;5034115;28;20182;-84
2021/04/14 02:52:42;;;;;;;4.93;1.95;;;;;;;4.88;55.83;101240.66;5044356;28;20059;-84
2021/04/14 02:55:14;;;;;;;3.80;1.90;;;;;;;4.87;56.12;101241.53;5052492;28;20048;-84
2021/04/14 02:57:44;;;;;;;2.53;1.70;;;;;;;4.87;56.00;101244.16;5053981;28;20049;-84
2021/04/14 03:00:11;;;;;;;4.13;1.85;;;;;;;4.87;56.09;101231.09;5054092;28;20048;-84
2021/04/14 03:02:38;;;;;;;6.90;1.80;;;;;;;4.87;56.13;101238.94;5053411;28;20049;-84
2021/04/14 03:05:06;;;;;;;5.72;2.28;;;;;;;4.83;56.08;101238.94;5053652;28;20049;-84
2021/04/14 03:07:32;;;;;;;8.68;2.25;;;;;;;4.86;56.24;101242.41;5053686;28;20491;-84
2021/04/14 03:09:58;;;;;;;4.97;2.00;;;;;;;4.84;56.52;101247.66;5053696;28;20055;-84
2021/04/14 03:12:24;;;;;;;4.55;2.10;;;;;;;4.83;56.14;101244.16;5053484;28;20052;-84
2021/04/14 03:14:50;;;;;;;5.38;2.10;;;;;;;4.82;56.28;101238.94;5053400;28;20045;-84
2021/04/14 03:17:17;;;;;;;4.90;1.75;;;;;;;4.80;56.37;101239.00;5053376;28;20045;-84
2021/04/14 03:19:43;;;;;;;2.22;1.60;;;;;;;4.80;56.25;101233.78;5035956;28;20133;-84
2021/04/14 03:22:09;;;;;;;6.30;1.83;;;;;;;4.79;56.38;101233.78;5053318;28;20433;-84
2021/04/14 03:24:35;;;;;;;7.43;1.75;;;;;;;4.78;56.15;101239.84;5053124;28;20049;-84
2021/04/14 03:27:06;;;;;;;5.22;2.03;;;;;;;4.77;56.41;101235.53;5036531;28;20056;-84
2021/04/14 03:29:32;;;;;;;6.05;2.10;;;;;;;4.75;56.56;101229.47;5053438;28;20554;-84
2021/04/14 03:31:58;;;;;;;8.15;2.10;;;;;;;4.73;56.44;101234.69;5035525;28;20390;-84
2021/04/14 03:34:24;;;;;;;7.97;2.45;;;;;;;4.73;56.80;101236.44;5053336;28;20423;-84
2021/04/14 03:36:50;;;;;;;6.95;3.03;;;;;;;4.72;56.54;101235.59;5035796;28;20056;-84
2021/04/14 03:39:16;;;;;;;9.10;2.50;;;;;;;4.71;56.96;101236.44;5053423;28;20053;-84
2021/04/14 03:41:42;;;;;;;6.18;2.30;;;;;;;4.71;56.89;101238.19;5053323;28;20057;-84
2021/04/14 03:44:08;;;;;;;3.13;2.17;;;;;;;4.70;56.95;101237.31;5055563;28;20049;-84
2021/04/14 03:46:34;;;;;;;9.48;2.33;;;;;;;4.69;56.95;101236.47;5039864;28;20076;-84
2021/04/14 03:49:01;;;;;;;5.60;2.22;;;;;;;4.69;57.16;101231.25;5057535;28;20049;-84
2021/04/14 03:51:28;;;;;;;3.75;1.60;;;;;;;4.70;56.97;101232.09;5057274;28;20099;-84
2021/04/14 03:53:55;;;;;;;4.28;2.38;;;;;;;4.69;56.97;101236.47;5057071;28;20045;-84
2021/04/14 03:56:22;;;;;;;4.03;2.00;;;;;;;4.70;57.14;101242.53;5057453;28;20095;-84
2021/04/14 03:58:51;;;;;;;7.15;2.75;;;;;;;4.69;57.36;101236.47;5057249;28;20045;-84
2021/04/14 04:01:29;;;;;;;4.45;2.13;;;;;;;4.66;57.40;101236.50;5039804;28;20463;-84
2021/04/14 04:03:57;;;;;;;5.95;2.28;;;;;;;4.69;57.33;101236.47;5057254;28;20075;-84
2021/04/14 04:06:23;;;;;;;3.55;2.30;;;;;;;4.70;57.06;101234.72;5057214;28;20053;-84
2021/04/14 04:08:50;;;;;;;4.30;2.45;;;;;;;4.68;57.13;101233.88;5057235;28;20061;-84
2021/04/14 04:11:19;;;;;;;4.90;2.63;;;;;;;4.66;56.93;101233.88;5039220;28;20049;-84
2021/04/14 04:13:46;;;;;;;4.47;2.53;;;;;;;4.66;56.97;101235.63;5056919;28;20045;-84
2021/04/14 04:16:13;;;;;;;7.97;2.95;;;;;;;4.65;57.31;101237.38;5057244;28;20075;-84
2021/04/14 04:18:39;;;;;;;9.85;3.00;;;;;;;4.63;57.20;101239.13;5056749;28;20080;-84
2021/04/14 04:21:07;;;;;;;10.02;3.08;;;;;;;4.62;56.92;101244.34;5039224;28;20060;-84
2021/04/14 04:23:34;;;;;;;6.93;3.03;;;;;;;4.60;57.16;101241.75;5056530;28;20056;-84
2021/04/14 04:26:00;;;;;;;11.82;3.20;;;;;;;4.60;57.22;101240.91;5056620;28;20049;-84
2021/04/14 04:28:27;;;;;;;6.53;3.50;;;;;;;4.57;57.20;101236.56;5056595;28;20045;-84
2021/04/14 04:30:53;;;;;;;9.43;2.92;;;;;;;4.55;57.22;101243.53;5038970;28;20048;-83
2021/04/14 04:33:20;;;;;;;6.70;3.28;;;;;;;4.53;57.47;101243.53;5038940;28;20049;-83
2021/04/14 04:35:47;;;;;;;7.65;3.08;;;;;;;4.50;57.07;101245.31;5056446;28;20049;-83
2021/04/14 04:38:13;;;;;;;10.30;3.65;;;;;;;4.48;57.29;101245.31;5054136;28;20053;-85
2021/04/14 04:40:39;;;;;;;9.88;3.45;;;;;;;4.47;57.28;101245.31;5066682;28;20056;-84
2021/04/14 04:43:07;;;;;;;10.25;3.35;;;;;;;4.43;57.52;101247.97;5075839;28;20195;-84
2021/04/14 04:45:34;;;;;;;7.75;3.70;;;;;;;4.42;57.54;101246.22;5057302;28;20496;-85
2021/04/14 04:48:01;;;;;;;9.95;3.25;;;;;;;4.41;57.76;101243.66;5075999;28;20064;-84
2021/04/14 04:50:29;;;;;;;8.60;3.17;;;;;;;4.40;57.62;101252.34;5057757;28;20102;-84
2021/04/14 04:52:57;;;;;;;5.60;3.10;;;;;;;4.40;57.67;101249.72;5075382;28;20048;-84
2021/04/14 04:55:24;;;;;;;8.02;3.13;;;;;;;4.38;57.94;101239.31;5073668;28;20566;-84
2021/04/14 04:58:05;;;;;;;5.85;3.22;;;;;;;4.40;57.60;101248.00;5059982;28;20055;-84
2021/04/14 05:00:31;;;;;;;6.20;3.22;;;;;;;4.41;57.93;101249.72;5075339;28;20056;-84
2021/04/14 05:02:57;;;;;;;8.60;3.42;;;;;;;4.41;58.30;101243.66;5075261;28;20497;-84
2021/04/14 05:05:27;;;;;;;8.18;3.30;;;;;;;4.41;58.20;101247.13;5074889;28;20098;-84
2021/04/14 05:07:53;;;;;;;10.98;3.40;;;;;;;4.44;57.99;101254.03;5075071;28;20052;-84
2021/04/14 05:10:20;;;;;;;12.05;3.58;;;;;;;4.44;57.91;101248.81;5075449;28;20448;-84
2021/04/14 05:12:51;;;;;;;5.32;2.75;;;;;;;4.45;58.21;101254.91;5074998;28;20571;-84
2021/04/14 05:15:22;;;;;;;13.23;3.35;;;;;;;4.48;58.53;101257.50;5074697;28;20048;-84
2021/04/14 05:17:49;;;;;;;5.97;3.10;;;;;;;4.49;58.38;101254.03;5075184;28;20049;-84
2021/04/14 05:20:16;;;;;;;8.40;3.22;;;;;;;4.50;58.32;101258.34;5057097;28;20048;-84
2021/04/14 05:22:44;;;;;;;6.82;2.88;;;;;;;4.54;58.51;101257.44;5075147;28;20130;-84
2021/04/14 05:25:14;;;;;;;8.00;2.95;;;;;;;4.55;58.58;101265.28;5074658;28;20078;-84
2021/04/14 05:27:42;;;;;;;4.88;2.70;;;;;;;4.59;58.15;101265.25;5057615;28;20094;-84
2021/04/14 05:30:09;;;;;;;5.82;3.08;;;;;;;4.60;58.44;101262.59;5074966;28;20048;-84
2021/04/14 05:32:35;;;;;;;5.55;3.00;;;;;;;4.62;58.66;101263.47;5056952;28;20044;-84
2021/04/14 05:35:02;;;;;;;6.55;3.03;;;;;;;4.64;58.75;101263.47;5074510;28;20059;-84
2021/04/14 05:37:28;;;;;;;5.60;2.55;;;;;;;4.66;58.70;101272.13;5075098;28;20052;-84
2021/04/14 05:39:54;;;;;;;7.70;3.20;;;;;;;4.67;58.38;101272.13;5074875;28;20060;-84
2021/04/14 05:42:21;;;;;;;4.32;2.60;;;;;;;4.68;58.68;101273.00;5074618;28;20052;-84
2021/04/14 05:44:48;;;;;;;5.28;2.97;;;;;;;4.69;58.71;101275.59;5073706;28;20101;-84
2021/04/14 05:47:14;;;;;;;9.45;3.00;;;;;;;4.72;58.93;101277.31;5074612;28;20055;-84
2021/04/14 05:49:41;;;;;;;6.15;2.72;;;;;;;4.74;58.69;101275.56;5074789;28;20080;-84
2021/04/14 05:52:07;;;;;;;5.70;2.45;;;;;;;4.78;58.94;101282.47;5056703;28;20052;-84
2021/04/14 05:54:34;;;;;;;7.55;2.85;;;;;;;4.81;58.87;101282.47;5073823;28;20059;-84
2021/04/14 05:57:00;;;;;;;6.82;2.67;;;;;;;4.86;58.74;101281.56;5056632;28;20075;-84
2021/04/14 05:59:26;;;;;;;6.75;2.67;;;;;;;4.90;59.04;101285.88;5056445;28;20051;-84
2021/04/14 06:01:52;;;;;;;5.57;2.60;;;;;;;4.94;59.07;101284.97;5074363;28;20060;-84
2021/04/14 06:04:18;;;;;;;5.65;2.53;;;;;;;4.98;58.98;101289.28;5056142;28;20057;-84
2021/04/14 06:06:45;;;;;;;9.07;2.78;;;;;;;5.01;59.06;101284.00;5056263;28;20044;-84
2021/04/14 06:09:12;;;;;;;8.93;2.45;;;;;;;5.06;59.08;101290.09;5074232;28;20053;-84
2021/04/14 06:11:39;;;;;;;7.65;2.80;;;;;;;5.10;59.03;101288.31;5056700;28;20048;-84
2021/04/14 06:14:06;;;;;;;7.25;2.55;;;;;;;5.15;59.45;101296.94;5073635;28;20459;-84
2021/04/14 06:16:32;;;;;;;7.18;3.17;;;;;;;5.19;59.27;101296.03;5073815;28;20059;-84
2021/04/14 06:18:58;;;;;;;5.95;2.60;;;;;;;5.25;59.22;101297.72;5074285;28;20048;-84
2021/04/14 06:21:26;;;;;;;6.55;2.53;;;;;;;5.29;59.14;101299.44;5073871;28;20094;-84
2021/04/14 06:23:53;;;;;;;7.78;2.60;;;;;;;5.33;59.04;101301.13;5073175;28;20051;-84
2021/04/14 06:26:47;;;;;;;5.30;2.35;;;;;;;5.39;59.57;101301.94;5056236;28;20493;-84
2021/04/14 06:29:08;;;;;;;4.18;2.17;;;;;;;5.45;59.19;101297.53;5073602;28;20056;-84
2021/04/14 06:31:40;;;;;;;5.07;3.00;;;;;;;5.51;59.08;101299.22;5073665;28;20123;-84
2021/04/14 06:34:20;;;;;;;5.93;2.58;;;;;;;5.54;59.13;101298.31;5055493;28;20088;-84
2021/04/14 06:36:49;;;;;;;5.50;2.10;;;;;;;5.60;58.95;101296.50;5056081;28;20052;-84
2021/04/14 06:39:18;;;;;;;4.47;2.47;;;;;;;5.64;59.41;101296.47;5055897;28;20071;-84
2021/04/14 06:42:25;;;;;;;3.35;2.08;;;;;;;5.67;58.98;101293.78;5055746;28;20444;-84
2021/04/14 06:45:18;;;;;;;8.35;2.90;;;;;;;5.73;58.85;101301.56;5055178;28;20057;-84
2021/04/14 06:47:50;;;;;;;6.57;2.53;;;;;;;5.82;58.94;101303.19;5073245;28;20052;-84
2021/04/14 06:50:23;;;;;;;3.00;2.28;;;;;;;5.84;59.10;101304.06;5073230;28;20049;-84
2021/04/14 06:53:18;;;;;;;4.07;1.95;;;;;;;5.86;59.21;101304.88;5055359;28;20045;-84
2021/04/14 06:55:54;;;;;;;7.10;2.53;;;;;;;5.92;59.04;101303.97;5054890;28;20048;-84
2021/04/14 06:58:30;;;;;;;3.30;2.00;;;;;;;5.96;58.77;101305.66;5073387;28;20048;-84
2021/04/14 07:01:02;;;;;;;6.40;2.35;;;;;;;6.00;58.88;101308.22;5073355;28;20052;-84
2021/04/14 07:03:35;;;;;;;5.25;2.10;;;;;;;6.04;59.01;101303.84;5055650;28;20044;-84
2021/04/14 07:06:10;;;;;;;7.03;2.78;;;;;;;6.09;58.87;101302.03;5056090;28;20056;-84
2021/04/14 07:09:13;;;;;;;6.55;2.35;;;;;;;6.15;58.98;101308.03;5058482;28;20060;-84
2021/04/14 07:11:41;;;;;;;5.75;2.22;;;;;;;6.19;58.89;101313.22;5055329;28;20444;-84
2021/04/14 07:14:08;;;;;;;5.28;2.22;;;;;;;6.23;59.02;101309.69;5072604;28;20044;-84
2021/04/14 07:16:40;;;;;;;6.65;2.55;;;;;;;6.26;58.87;101308.78;5073250;28;20095;-84
2021/04/14 07:19:33;;;;;;;5.47;2.08;;;;;;;6.28;59.01;101307.00;5072781;28;20139;-85
2021/04/14 07:22:03;;;;;;;7.82;2.13;;;;;;;6.35;58.75;101308.66;5072985;28;20075;-84
2021/04/14 07:24:35;;;;;;;6.70;2.28;;;;;;;6.39;58.94;101306.84;5054680;28;20045;-85
2021/04/14 07:27:13;;;;;;;4.63;2.03;;;;;;;6.40;58.32;101303.34;5073226;28;20482;-84
2021/04/14 07:29:45;;;;;;;5.00;1.80;;;;;;;6.46;58.58;101302.38;5073087;28;20056;-84
2021/04/14 07:32:36;;;;;;;4.88;1.70;;;;;;;6.48;58.35;101309.34;5072884;28;20475;-84
2021/04/14 07:35:38;;;;;;;2.25;1.52;;;;;;;6.53;58.33;101301.41;5072501;28;20083;-84
2021/04/14 07:38:28;;;;;;;3.35;1.80;;;;;;;6.59;58.17;101300.47;4972580;28;20055;-84
2021/04/14 07:41:16;;;;;;;1.90;1.70;;;;;;;6.66;58.56;101299.50;5073385;28;20047;-84
2021/04/14 07:44:01;;;;;;;7.05;1.73;;;;;;;6.72;58.70;101298.50;5072943;28;20045;-85
2021/04/14 07:46:27;;;;;;;4.10;1.80;;;;;;;6.76;58.66;101303.66;5055314;28;20052;-85
2021/04/14 07:48:56;;;;;;;4.10;1.70;;;;;;;6.80;58.76;101291.38;5054740;28;20505;-85
2021/04/14 07:51:24;;;;;;;8.18;2.38;;;;;;;6.86;58.60;101293.94;5072457;28;20059;-84
2021/04/14 07:53:57;;;;;;;4.07;1.70;;;;;;;6.89;58.46;101293.00;5071970;28;20052;-85
2021/04/14 07:56:24;;;;;;;3.90;1.40;;;;;;;6.97;58.72;101290.25;5054634;28;20060;-84
2021/04/14 07:58:59;;;;;;;5.18;2.10;;;;;;;7.01;58.37;101291.94;5072681;28;20072;-85
2021/04/14 08:01:29;;;;;;;7.75;1.60;;;;;;;7.09;58.71;101294.41;5072578;28;20048;-85
2021/04/14 08:04:20;;;;;;;4.53;1.48;;;;;;;7.13;58.12;101299.56;5071785;28;20576;-85
2021/04/14 08:06:49;;;;;;;5.57;1.50;;;;;;;7.24;nan;101302.00;5072379;28;20056;-85
2021/04/14 08:09:20;;;;;;;4.03;1.20;;;;;;;7.29;58.73;101302.78;5072489;28;20063;-85
2021/04/14 08:11:48;;;;;;;4.78;1.35;;;;;;;7.36;58.65;101303.53;5072614;28;20397;-85
2021/04/14 08:14:18;;;;;;;7.00;1.27;;;;;;;7.43;58.64;101293.78;5054113;28;20044;-85
2021/04/14 08:16:48;;;;;;;5.47;1.35;;;;;;;7.51;58.54;101298.91;5054745;28;20044;-84
2021/04/14 08:19:18;;;;;;;5.10;1.35;;;;;;;7.58;58.61;101294.41;5072173;28;20068;-85
2021/04/14 08:22:00;;;;;;;4.32;1.20;;;;;;;7.65;57.68;101296.88;5072308;28;20060;-84
2021/04/14 08:24:47;;;;;;;4.35;1.40;;;;;;;7.76;57.39;101295.78;5071804;28;20055;-85
2021/04/14 08:27:24;;;;;;;3.88;1.42;;;;;;;7.88;58.38;101298.16;5072231;28;20052;-85
2021/04/14 08:30:04;;;;;;;4.80;1.48;;;;;;;7.98;57.92;101297.94;5073718;28;20052;-84
2021/04/14 08:32:41;;;;;;;5.75;1.30;;;;;;;8.11;58.09;101294.16;5076210;28;20055;-85
2021/04/14 08:35:37;;;;;;;3.15;1.40;;;;;;;8.23;57.68;101293.06;5075523;28;20079;-85
2021/04/14 08:38:10;;;;;;;6.10;1.55;;;;;;;8.39;58.03;101290.94;5056277;28;20508;-85
2021/04/14 08:40:50;;;;;;;5.68;1.73;;;;;;;8.50;57.90;101285.44;5076190;28;20048;-85
2021/04/14 08:43:43;;;;;;;5.78;1.42;;;;;;;8.64;57.01;101279.03;5075756;28;20053;-85
2021/04/14 08:46:19;;;;;;;4.15;1.52;;;;;;;8.78;56.42;101282.16;5075696;28;20054;-85
2021/04/14 08:48:52;;;;;;;7.18;1.88;;;;;;;8.90;56.37;101288.03;5075776;28;20127;-85
2021/04/14 08:51:19;;;;;;;4.25;1.20;;;;;;;8.99;57.21;101278.16;5075455;28;20425;-85
2021/04/14 08:53:47;;;;;;;2.42;1.40;;;;;;;9.06;57.33;101281.47;5074900;28;20052;-85
2021/04/14 08:56:14;;;;;;;4.43;1.38;;;;;;;9.14;57.01;101281.28;5057705;28;20056;-85
2021/04/14 08:58:40;;;;;;;5.63;1.45;;;;;;;9.22;56.88;101289.81;5075583;28;20045;-85
2021/04/14 09:01:52;;;;;;;4.95;1.30;;;;;;;9.29;55.85;101281.75;5057652;28;20052;-85
2021/04/14 09:04:22;;;;;;;;;;;;;;;9.43;55.91;101279.63;5042587;28;20044;-85
2021/04/14 09:07:05;;;;;;;2.72;1.20;;;;;;;9.54;55.81;101286.34;5058374;28;19921;-85
2021/04/14 09:09:46;;;;;;;4.50;1.42;;;;;;;9.63;55.83;101280.81;5058098;28;20049;-85
2021/04/14 09:12:13;;;;;;;2.90;1.35;;;;;;;9.75;57.21;101285.72;5074694;28;20053;-84
2021/04/14 09:14:39;;;;;;;5.97;1.50;;;;;;;9.90;57.03;101283.56;5057209;28;20063;-85
2021/04/14 09:17:17;;;;;;;3.17;1.23;;;;;;;10.02;55.27;101282.34;5075137;28;20056;-85
2021/04/14 09:19:46;;;;;;;5.18;1.33;;;;;;;10.17;55.15;101289.75;5075126;28;20078;-85
2021/04/14 09:22:12;;;;;;;4.97;1.10;;;;;;;10.25;54.22;101279.00;5075329;28;20420;-85
2021/04/14 09:24:43;;;;;;;5.32;1.38;;;;;;;10.26;53.16;101279.84;5074582;28;20048;-85
2021/04/14 09:27:19;;;;;;;5.22;1.63;;;;;;;10.25;52.09;101279.00;5075229;28;20483;-85
2021/04/14 09:30:00;;;;;;;4.50;1.27;;;;;;;10.29;52.97;101277.97;5057232;28;20056;-85
2021/04/14 09:33:05;;;;;;;4.38;1.23;;;;;;;10.40;53.73;101275.00;5056712;28;20052;-85
2021/04/14 09:35:31;;;;;;;5.03;1.63;;;;;;;10.58;54.77;101275.34;5006809;28;20048;-85
2021/04/14 09:38:20;;;;;;;3.33;1.40;;;;;;;10.67;52.19;101280.34;5056933;28;20489;-85
2021/04/14 09:40:46;;;;;;;5.35;1.60;;;;;;;10.82;53.09;101281.63;5073936;28;20052;-85
2021/04/14 09:43:17;;;;;;;2.25;1.38;;;;;;;10.86;51.32;101278.84;5074549;28;20505;-85
2021/04/14 09:45:57;;;;;;;5.80;1.38;;;;;;;10.84;50.79;101275.44;5056589;28;20041;-85
2021/04/14 09:48:23;;;;;;;4.95;1.58;;;;;;;10.87;52.37;101275.34;5056769;28;20054;-85
2021/04/14 09:50:51;;;;;;;6.60;2.35;;;;;;;10.85;52.42;101278.03;5057126;28;20059;-86
2021/04/14 09:53:37;;;;;;;5.68;1.73;;;;;;;10.76;51.30;101275.69;5074161;28;20053;-85
2021/04/14 09:56:33;;;;;;;4.10;1.50;;;;;;;10.73;51.24;101275.78;5074234;28;20048;-85
2021/04/14 09:59:06;;;;;;;5.22;2.00;;;;;;;10.71;51.15;101270.56;5072964;28;20496;-85
2021/04/14 10:01:35;;;;;;;7.90;1.52;;;;;;;10.66;51.90;101270.72;5056517;28;20052;-85
2021/04/14 10:04:08;;;;;;;6.68;1.80;;;;;;;10.58;51.28;101266.63;5055818;28;20044;-85
2021/04/14 10:06:35;;;;;;;2.90;1.40;;;;;;;10.52;51.79;101268.53;5074427;28;20058;-85
2021/04/14 10:09:07;;;;;;;4.47;1.52;;;;;;;10.43;50.43;101271.41;5074402;28;20062;-85
2021/04/14 10:11:37;;;;;;;2.28;1.48;;;;;;;10.38;51.39;101265.44;5074157;28;20045;-85
2021/04/14 10:14:13;;;;;;;3.72;1.30;;;;;;;10.32;51.05;101263.84;5055865;28;20077;-85
2021/04/14 10:16:40;;;;;;;2.83;1.27;;;;;;;10.34;51.65;101255.91;5074387;28;20055;-85
2021/04/14 10:19:11;;;;;;;6.78;1.70;;;;;;;10.29;51.64;101254.28;5073744;28;20048;-85
2021/04/14 10:21:40;;;;;;;6.90;1.92;;;;;;;10.29;52.10;101259.56;5074039;28;20049;-85
2021/04/14 10:24:12;;;;;;;3.63;1.30;;;;;;;10.28;52.31;101249.94;5073464;28;20051;-85
2021/04/14 10:26:49;;;;;;;4.47;1.55;;;;;;;10.27;51.88;101248.22;5073973;28;20056;-85
2021/04/14 10:29:17;;;;;;;3.58;1.30;;;;;;;10.34;52.92;101241.00;5073995;28;20061;-85
2021/04/14 10:31:43;;;;;;;6.72;1.55;;;;;;;10.41;52.37;101234.63;5073545;28;20048;-85
2021/04/14 10:34:21;;;;;;;5.35;1.33;;;;;;;10.49;52.20;101239.69;5073202;28;20048;-85
2021/04/14 10:36:48;;;;;;;4.88;1.42;;;;;;;10.65;53.03;101233.91;5073688;28;20105;-85
2021/04/14 10:39:24;;;;;;;4.60;1.48;;;;;;;10.77;52.25;101233.47;5073696;28;20052;-85
2021/04/14 10:41:53;;;;;;;2.42;1.10;;;;;;;10.92;52.14;101234.72;5073842;28;20112;-85
2021/04/14 10:44:26;;;;;;;5.57;1.58;;;;;;;11.00;50.29;101231.84;5055188;28;20098;-85
2021/04/14 10:47:07;;;;;;;2.65;1.40;;;;;;;11.08;50.88;101228.94;5073163;28;20048;-85
2021/04/14 10:49:36;;;;;;;3.42;1.40;;;;;;;11.22;52.54;101220.53;5073400;28;20071;-85
2021/04/14 10:52:25;;;;;;;3.35;1.40;;;;;;;11.37;51.70;101218.25;5055571;28;20052;-85
2021/04/14 10:54:54;;;;;;;5.60;1.35;;;;;;;11.63;53.64;101225.19;5054799;28;20071;-84
2021/04/14 10:57:29;;;;;;;6.00;1.48;;;;;;;11.91;52.44;101212.69;5073361;28;20052;-85
2021/04/14 11:00:08;;;;;;;2.70;1.20;;;;;;;12.30;54.02;101209.41;5055183;28;20075;-85
2021/04/14 11:02:45;;;;;;;7.47;1.35;;;;;;;12.81;54.35;101217.00;5055479;28;20049;-85
2021/04/14 11:12:32;;;;;;;;;;;;;;;;;;;;;
2021/04/14 11:16:04;;;;;;;6.63;1.38;;;;;;;13.96;47.29;101220.75;5055240;28;20404;-85
2021/04/14 11:18:49;;;;;;;3.45;1.23;;;;;;;13.71;47.22;101224.56;4968947;28;20051;-85
2021/04/14 11:21:30;;;;;;;7.55;1.30;;;;;;;13.35;46.64;101224.34;5055020;28;20500;-85
2021/04/14 11:24:07;;;;;;;3.42;1.13;;;;;;;13.06;46.95;101225.66;5054811;28;20044;-85
2021/04/14 11:26:58;;;;;;;2.72;1.02;;;;;;;12.73;47.62;101224.41;5055059;28;20059;-85
2021/04/14 11:29:26;;;;;;;3.08;1.17;;;;;;;12.51;48.44;101220.91;5055029;28;20049;-85
2021/04/14 11:31:54;;;;;;;3.13;1.05;;;;;;;12.27;48.32;101225.41;5072845;28;20104;-85
2021/04/14 11:34:29;;;;;;;2.75;1.00;;;;;;;12.05;48.14;101220.97;5054787;28;20055;-85
2021/04/14 11:37:26;;;;;;;3.97;1.08;;;;;;;11.84;48.17;101220.00;5073067;28;20059;-85
2021/04/14 11:39:58;;;;;;;5.22;1.10;;;;;;;11.79;49.21;101216.69;5073344;28;20060;-85
2021/04/14 11:42:58;;;;;;;3.38;0.90;;;;;;;11.68;48.64;101220.59;5072698;28;20087;-85
2021/04/14 11:45:30;;;;;;;3.20;1.50;;;;;;;11.65;48.82;101220.72;5072275;28;20090;-85
2021/04/14 11:48:10;;;;;;;3.17;1.00;;;;;;;11.57;48.76;101220.13;5055061;28;20057;-85
2021/04/14 11:50:48;;;;;;;4.45;1.25;;;;;;;11.54;48.99;101225.50;5072839;28;20071;-85
2021/04/14 11:53:31;;;;;;;4.90;1.13;;;;;;;11.51;49.51;101221.22;5054566;28;20075;-85
2021/04/14 11:56:01;;;;;;;3.42;1.05;;;;;;;11.54;49.99;101221.13;5054739;28;20040;-85
2021/04/14 11:58:31;;;;;;;4.78;1.02;;;;;;;11.55;49.31;101222.81;5085459;22;20043;-86
2021/04/14 12:00:57;;;;;;;1.52;0.80;;;;;;;11.60;50.39;101206.84;5042352;28;20049;-87
2021/04/14 12:03:37;;;;;;;4.78;0.90;;;;;;;11.66;49.31;101203.13;5058233;28;20053;-86